sensor_id;sensor_type;location;lat;lon;timestamp;pressure;altitude;pressure_sealevel;temperature;humidity
75312;BME280;63906;55.686;37.532;2023-04-29T00:00:32;99315.97;;;4.80;83.94
75312;BME280;63906;55.686;37.532;2023-04-29T00:05:37;99320.03;;;4.83;83.57
75312;BME280;63906;55.686;37.532;2023-04-29T00:10:39;99299.44;;;4.64;84.01
75312;BME280;63906;55.686;37.532;2023-04-29T00:15:55;99314.97;;;4.73;83.72
75312;BME280;63906;55.686;37.532;2023-04-29T00:20:56;99242.53;;;4.35;83.94
75312;BME280;63906;55.686;37.532;2023-04-29T00:25:56;99281.84;;;4.66;83.59
75312;BME280;63906;55.686;37.532;2023-04-29T00:30:57;99267.19;;;4.56;84.00
75312;BME280;63906;55.686;37.532;2023-04-29T00:35:57;99285.94;;;4.60;83.63
75312;BME280;63906;55.686;37.532;2023-04-29T00:40:58;99288.50;;;4.52;83.81
75312;BME280;63906;55.686;37.532;2023-04-29T00:45:59;99280.22;;;4.56;84.25
75312;BME280;63906;55.686;37.532;2023-04-29T00:51:00;99274.50;;;4.53;84.50
75312;BME280;63906;55.686;37.532;2023-04-29T00:56:01;99277.63;;;4.56;85.08
75312;BME280;63906;55.686;37.532;2023-04-29T01:01:02;99277.75;;;4.47;84.45
75312;BME280;63906;55.686;37.532;2023-04-29T01:06:39;99278.75;;;4.54;84.08
75312;BME280;63906;55.686;37.532;2023-04-29T01:11:52;99264.06;;;4.45;85.03
75312;BME280;63906;55.686;37.532;2023-04-29T01:16:58;99270.94;;;4.54;84.18
75312;BME280;63906;55.686;37.532;2023-04-29T01:21:59;99262.09;;;4.39;85.17
75312;BME280;63906;55.686;37.532;2023-04-29T01:27:16;99256.41;;;4.43;84.51
75312;BME280;63906;55.686;37.532;2023-04-29T01:32:40;99251.38;;;4.50;84.29
75312;BME280;63906;55.686;37.532;2023-04-29T01:37:56;99284.97;;;4.61;84.65
75312;BME280;63906;55.686;37.532;2023-04-29T01:43:01;99259.19;;;4.42;83.82
75312;BME280;63906;55.686;37.532;2023-04-29T01:48:03;99263.88;;;4.38;84.55
75312;BME280;63906;55.686;37.532;2023-04-29T01:53:04;99271.16;;;4.26;84.68
75312;BME280;63906;55.686;37.532;2023-04-29T01:58:04;99263.53;;;4.25;85.10
75312;BME280;63906;55.686;37.532;2023-04-29T02:03:05;99260.28;;;4.23;84.49
75312;BME280;63906;55.686;37.532;2023-04-29T02:08:06;99274.75;;;4.25;84.65
75312;BME280;63906;55.686;37.532;2023-04-29T02:13:07;99270.50;;;4.16;84.77
75312;BME280;63906;55.686;37.532;2023-04-29T02:18:07;99274.06;;;4.15;85.21
75312;BME280;63906;55.686;37.532;2023-04-29T02:23:08;99289.28;;;4.36;84.19
75312;BME280;63906;55.686;37.532;2023-04-29T02:28:09;99250.22;;;3.94;84.50
75312;BME280;63906;55.686;37.532;2023-04-29T02:33:09;99292.53;;;4.30;85.42
75312;BME280;63906;55.686;37.532;2023-04-29T02:38:10;99279.94;;;4.17;84.26
75312;BME280;63906;55.686;37.532;2023-04-29T02:43:11;99306.22;;;4.32;84.57
75312;BME280;63906;55.686;37.532;2023-04-29T02:48:12;99320.47;;;4.20;85.63
75312;BME280;63906;55.686;37.532;2023-04-29T02:53:12;99312.50;;;4.21;85.56
75312;BME280;63906;55.686;37.532;2023-04-29T02:58:13;99303.81;;;4.04;85.50
75312;BME280;63906;55.686;37.532;2023-04-29T03:03:14;99340.06;;;4.24;85.85
75312;BME280;63906;55.686;37.532;2023-04-29T03:08:15;99355.25;;;4.37;86.47
75312;BME280;63906;55.686;37.532;2023-04-29T03:13:15;99367.13;;;4.39;86.20
75312;BME280;63906;55.686;37.532;2023-04-29T03:18:16;99374.69;;;4.50;86.02
75312;BME280;63906;55.686;37.532;2023-04-29T03:23:16;99390.78;;;4.46;85.38
75312;BME280;63906;55.686;37.532;2023-04-29T03:28:17;99395.78;;;4.39;85.31
75312;BME280;63906;55.686;37.532;2023-04-29T03:33:17;99389.19;;;4.19;85.67
75312;BME280;63906;55.686;37.532;2023-04-29T03:38:18;99412.84;;;4.25;85.92
75312;BME280;63906;55.686;37.532;2023-04-29T03:43:19;99386.94;;;4.24;85.52
75312;BME280;63906;55.686;37.532;2023-04-29T03:48:19;99395.22;;;4.19;85.46
75312;BME280;63906;55.686;37.532;2023-04-29T03:53:20;99397.84;;;4.27;84.89
75312;BME280;63906;55.686;37.532;2023-04-29T03:58:21;99393.88;;;4.15;84.47
75312;BME280;63906;55.686;37.532;2023-04-29T04:03:23;99415.69;;;4.14;84.45
75312;BME280;63906;55.686;37.532;2023-04-29T04:08:25;99391.13;;;3.91;83.65
75312;BME280;63906;55.686;37.532;2023-04-29T04:13:25;99434.78;;;3.97;85.06
75312;BME280;63906;55.686;37.532;2023-04-29T04:18:26;99428.63;;;3.98;85.09
75312;BME280;63906;55.686;37.532;2023-04-29T04:23:27;99438.44;;;4.04;84.17
75312;BME280;63906;55.686;37.532;2023-04-29T04:28:27;99397.25;;;3.82;84.71
75312;BME280;63906;55.686;37.532;2023-04-29T04:33:28;99425.41;;;4.04;84.67
75312;BME280;63906;55.686;37.532;2023-04-29T04:38:28;99399.41;;;4.12;85.96
75312;BME280;63906;55.686;37.532;2023-04-29T04:43:29;99410.00;;;4.45;85.29
75312;BME280;63906;55.686;37.532;2023-04-29T04:48:29;99407.28;;;4.54;85.74
75312;BME280;63906;55.686;37.532;2023-04-29T04:53:30;99409.13;;;4.70;83.84
75312;BME280;63906;55.686;37.532;2023-04-29T04:58:31;99431.28;;;4.66;82.74
75312;BME280;63906;55.686;37.532;2023-04-29T05:03:32;99435.00;;;4.64;83.44
75312;BME280;63906;55.686;37.532;2023-04-29T05:08:33;99438.41;;;4.56;84.18
75312;BME280;63906;55.686;37.532;2023-04-29T05:13:33;99425.00;;;4.51;85.03
75312;BME280;63906;55.686;37.532;2023-04-29T05:18:34;99426.09;;;4.74;83.21
75312;BME280;63906;55.686;37.532;2023-04-29T05:23:35;99439.16;;;4.82;82.46
75312;BME280;63906;55.686;37.532;2023-04-29T05:28:35;99413.09;;;4.82;83.20
75312;BME280;63906;55.686;37.532;2023-04-29T05:33:36;99436.16;;;5.03;83.10
75312;BME280;63906;55.686;37.532;2023-04-29T05:38:37;99406.78;;;5.01;82.01
75312;BME280;63906;55.686;37.532;2023-04-29T05:43:37;99434.09;;;5.39;81.71
75312;BME280;63906;55.686;37.532;2023-04-29T05:48:38;99443.88;;;5.37;81.39
75312;BME280;63906;55.686;37.532;2023-04-29T05:53:39;99458.13;;;5.84;80.20
75312;BME280;63906;55.686;37.532;2023-04-29T05:58:39;99446.69;;;5.85;78.44
75312;BME280;63906;55.686;37.532;2023-04-29T06:03:40;99474.44;;;5.86;78.62
75312;BME280;63906;55.686;37.532;2023-04-29T06:08:41;99480.34;;;5.96;80.70
75312;BME280;63906;55.686;37.532;2023-04-29T06:13:41;99416.16;;;5.77;81.12
75312;BME280;63906;55.686;37.532;2023-04-29T06:18:42;99454.31;;;6.43;81.35
75312;BME280;63906;55.686;37.532;2023-04-29T06:23:42;99504.56;;;6.86;76.59
75312;BME280;63906;55.686;37.532;2023-04-29T06:28:43;99500.84;;;6.72;76.32
75312;BME280;63906;55.686;37.532;2023-04-29T06:33:43;99495.47;;;6.66;75.94
75312;BME280;63906;55.686;37.532;2023-04-29T06:38:44;99473.72;;;6.57;79.17
75312;BME280;63906;55.686;37.532;2023-04-29T06:43:44;99497.59;;;7.01;75.58
75312;BME280;63906;55.686;37.532;2023-04-29T06:48:45;99512.31;;;7.42;76.03
75312;BME280;63906;55.686;37.532;2023-04-29T06:53:46;99495.38;;;7.29;75.39
75312;BME280;63906;55.686;37.532;2023-04-29T06:58:47;99527.84;;;7.43;76.79
75312;BME280;63906;55.686;37.532;2023-04-29T07:03:48;99521.94;;;7.49;77.24
75312;BME280;63906;55.686;37.532;2023-04-29T07:08:58;99532.56;;;7.79;76.92
75312;BME280;63906;55.686;37.532;2023-04-29T07:14:00;99524.47;;;8.12;73.59
75312;BME280;63906;55.686;37.532;2023-04-29T07:19:05;99548.22;;;8.33;76.32
75312;BME280;63906;55.686;37.532;2023-04-29T07:24:06;99530.41;;;8.66;72.39
75312;BME280;63906;55.686;37.532;2023-04-29T07:29:11;99537.94;;;8.84;72.82
75312;BME280;63906;55.686;37.532;2023-04-29T07:34:16;99548.44;;;9.13;71.73
75312;BME280;63906;55.686;37.532;2023-04-29T07:39:20;99543.44;;;9.04;71.62
75312;BME280;63906;55.686;37.532;2023-04-29T07:44:21;99564.69;;;8.94;72.36
75312;BME280;63906;55.686;37.532;2023-04-29T07:49:26;99561.38;;;9.15;74.41
75312;BME280;63906;55.686;37.532;2023-04-29T07:54:27;99564.59;;;9.83;73.14
75312;BME280;63906;55.686;37.532;2023-04-29T07:59:28;99568.25;;;9.82;69.03
75312;BME280;63906;55.686;37.532;2023-04-29T08:04:29;99562.78;;;9.47;69.20
75312;BME280;63906;55.686;37.532;2023-04-29T08:09:29;99588.22;;;9.61;70.81
75312;BME280;63906;55.686;37.532;2023-04-29T08:14:30;99585.97;;;9.43;71.84
75312;BME280;63906;55.686;37.532;2023-04-29T08:19:30;99600.44;;;9.69;68.93
75312;BME280;63906;55.686;37.532;2023-04-29T08:24:31;99601.16;;;9.78;69.66
75312;BME280;63906;55.686;37.532;2023-04-29T08:29:33;99611.84;;;9.76;70.21
75312;BME280;63906;55.686;37.532;2023-04-29T08:34:33;99587.53;;;9.38;63.61
75312;BME280;63906;55.686;37.532;2023-04-29T08:39:35;99605.56;;;8.97;68.04
75312;BME280;63906;55.686;37.532;2023-04-29T08:44:36;99569.66;;;8.74;65.63
75312;BME280;63906;55.686;37.532;2023-04-29T08:49:37;99600.00;;;9.06;64.95
75312;BME280;63906;55.686;37.532;2023-04-29T08:54:38;99594.25;;;9.26;64.48
75312;BME280;63906;55.686;37.532;2023-04-29T08:59:39;99612.91;;;9.46;68.61
75312;BME280;63906;55.686;37.532;2023-04-29T09:05:04;99585.63;;;9.83;62.79
75312;BME280;63906;55.686;37.532;2023-04-29T09:10:07;99620.13;;;10.31;60.25
75312;BME280;63906;55.686;37.532;2023-04-29T09:15:08;99593.50;;;10.40;62.34
75312;BME280;63906;55.686;37.532;2023-04-29T09:25:22;99632.56;;;11.14;67.57
75312;BME280;63906;55.686;37.532;2023-04-29T09:30:23;99618.09;;;10.75;67.19
75312;BME280;63906;55.686;37.532;2023-04-29T09:35:25;99637.53;;;11.02;63.88
75312;BME280;63906;55.686;37.532;2023-04-29T09:40:26;99630.53;;;11.16;60.42
75312;BME280;63906;55.686;37.532;2023-04-29T09:45:34;99617.13;;;11.11;59.32
75312;BME280;63906;55.686;37.532;2023-04-29T09:50:40;99645.44;;;11.78;63.14
75312;BME280;63906;55.686;37.532;2023-04-29T10:00:53;99626.13;;;14.21;57.50
75312;BME280;63906;55.686;37.532;2023-04-29T10:05:55;99637.69;;;16.19;45.53
75312;BME280;63906;55.686;37.532;2023-04-29T10:11:00;99650.44;;;19.33;44.54
75312;BME280;63906;55.686;37.532;2023-04-29T10:16:17;99593.94;;;18.19;39.52
75312;BME280;63906;55.686;37.532;2023-04-29T10:21:28;99661.16;;;17.81;48.88
75312;BME280;63906;55.686;37.532;2023-04-29T10:26:33;99606.94;;;18.15;37.99
75312;BME280;63906;55.686;37.532;2023-04-29T10:31:37;99672.53;;;16.10;43.69
75312;BME280;63906;55.686;37.532;2023-04-29T10:36:39;99686.72;;;14.43;47.23
75312;BME280;63906;55.686;37.532;2023-04-29T10:41:44;99660.44;;;13.58;48.23
75312;BME280;63906;55.686;37.532;2023-04-29T10:46:46;99693.59;;;13.47;57.56
75312;BME280;63906;55.686;37.532;2023-04-29T10:51:46;99680.00;;;12.71;49.62
75312;BME280;63906;55.686;37.532;2023-04-29T10:56:49;99694.38;;;12.35;54.15
75312;BME280;63906;55.686;37.532;2023-04-29T11:01:52;99683.19;;;12.33;63.95
75312;BME280;63906;55.686;37.532;2023-04-29T11:06:54;99707.66;;;13.55;53.13
75312;BME280;63906;55.686;37.532;2023-04-29T11:12:02;99692.31;;;15.59;51.70
75312;BME280;63906;55.686;37.532;2023-04-29T11:17:08;99705.03;;;18.18;48.52
75312;BME280;63906;55.686;37.532;2023-04-29T11:27:32;99702.72;;;22.66;39.91
75312;BME280;63906;55.686;37.532;2023-04-29T11:32:39;99690.28;;;24.65;28.63
75312;BME280;63906;55.686;37.532;2023-04-29T11:37:41;99688.34;;;23.77;31.09
75312;BME280;63906;55.686;37.532;2023-04-29T11:42:47;99686.13;;;25.17;33.71
75312;BME280;63906;55.686;37.532;2023-04-29T11:47:48;99708.66;;;24.09;26.35
75312;BME280;63906;55.686;37.532;2023-04-29T11:52:48;99709.69;;;21.78;30.80
75312;BME280;63906;55.686;37.532;2023-04-29T11:57:49;99678.50;;;22.20;35.44
75312;BME280;63906;55.686;37.532;2023-04-29T12:02:51;99687.44;;;24.02;33.79
75312;BME280;63906;55.686;37.532;2023-04-29T12:07:53;99689.94;;;21.37;35.24
75312;BME280;63906;55.686;37.532;2023-04-29T12:12:54;99682.06;;;18.74;38.86
75312;BME280;63906;55.686;37.532;2023-04-29T12:17:55;99697.94;;;19.70;39.32
75312;BME280;63906;55.686;37.532;2023-04-29T12:22:55;99702.75;;;23.06;34.57
75312;BME280;63906;55.686;37.532;2023-04-29T12:27:58;99675.66;;;23.98;33.20
75312;BME280;63906;55.686;37.532;2023-04-29T12:32:59;99663.50;;;26.09;30.02
75312;BME280;63906;55.686;37.532;2023-04-29T12:38:00;99674.47;;;25.46;32.38
75312;BME280;63906;55.686;37.532;2023-04-29T12:43:07;99688.19;;;23.33;42.69
75312;BME280;63906;55.686;37.532;2023-04-29T12:48:10;99666.78;;;20.03;35.18
75312;BME280;63906;55.686;37.532;2023-04-29T12:53:11;99691.34;;;19.39;35.11
75312;BME280;63906;55.686;37.532;2023-04-29T12:58:12;99684.13;;;17.35;38.34
75312;BME280;63906;55.686;37.532;2023-04-29T13:03:13;99663.72;;;15.80;40.94
75312;BME280;63906;55.686;37.532;2023-04-29T13:08:14;99690.59;;;15.28;43.20
75312;BME280;63906;55.686;37.532;2023-04-29T13:13:14;99675.78;;;18.80;42.56
75312;BME280;63906;55.686;37.532;2023-04-29T13:18:15;99684.38;;;22.17;33.85
75312;BME280;63906;55.686;37.532;2023-04-29T13:23:16;99678.69;;;20.17;34.67
75312;BME280;63906;55.686;37.532;2023-04-29T13:28:16;99683.72;;;17.66;36.60
75312;BME280;63906;55.686;37.532;2023-04-29T13:33:17;99661.88;;;15.80;38.39
75312;BME280;63906;55.686;37.532;2023-04-29T13:38:18;99691.00;;;15.87;41.92
75312;BME280;63906;55.686;37.532;2023-04-29T13:43:18;99653.63;;;16.19;38.73
75312;BME280;63906;55.686;37.532;2023-04-29T13:48:19;99683.06;;;15.44;39.29
75312;BME280;63906;55.686;37.532;2023-04-29T13:53:20;99683.78;;;14.58;39.22
75312;BME280;63906;55.686;37.532;2023-04-29T13:58:21;99668.91;;;13.80;39.77
75312;BME280;63906;55.686;37.532;2023-04-29T14:03:21;99691.81;;;13.28;38.55
75312;BME280;63906;55.686;37.532;2023-04-29T14:08:22;99688.75;;;13.18;42.00
75312;BME280;63906;55.686;37.532;2023-04-29T14:13:22;99665.19;;;12.83;42.14
75312;BME280;63906;55.686;37.532;2023-04-29T14:18:23;99680.63;;;12.73;43.50
75312;BME280;63906;55.686;37.532;2023-04-29T14:23:24;99673.44;;;13.60;45.87
75312;BME280;63906;55.686;37.532;2023-04-29T14:28:25;99658.59;;;14.04;42.30
75312;BME280;63906;55.686;37.532;2023-04-29T14:33:26;99677.25;;;14.22;44.45
75312;BME280;63906;55.686;37.532;2023-04-29T14:38:27;99688.03;;;14.27;37.87
75312;BME280;63906;55.686;37.532;2023-04-29T14:43:27;99670.56;;;14.19;37.08
75312;BME280;63906;55.686;37.532;2023-04-29T14:48:28;99675.69;;;15.02;37.44
75312;BME280;63906;55.686;37.532;2023-04-29T14:53:29;99672.53;;;15.37;37.00
75312;BME280;63906;55.686;37.532;2023-04-29T14:58:29;99651.03;;;15.02;36.33
75312;BME280;63906;55.686;37.532;2023-04-29T15:03:30;99650.19;;;14.83;36.20
75312;BME280;63906;55.686;37.532;2023-04-29T15:08:30;99681.38;;;15.06;34.36
75312;BME280;63906;55.686;37.532;2023-04-29T15:13:31;99657.88;;;14.66;34.84
75312;BME280;63906;55.686;37.532;2023-04-29T15:18:31;99683.31;;;14.36;33.77
75312;BME280;63906;55.686;37.532;2023-04-29T15:23:32;99673.78;;;13.83;34.31
75312;BME280;63906;55.686;37.532;2023-04-29T15:28:33;99662.72;;;13.28;38.26
75312;BME280;63906;55.686;37.532;2023-04-29T15:33:33;99680.63;;;13.06;38.30
75312;BME280;63906;55.686;37.532;2023-04-29T15:38:35;99661.53;;;12.78;37.33
75312;BME280;63906;55.686;37.532;2023-04-29T15:43:36;99661.09;;;12.54;39.95
75312;BME280;63906;55.686;37.532;2023-04-29T15:48:36;99665.75;;;12.39;40.09
75312;BME280;63906;55.686;37.532;2023-04-29T15:53:37;99686.50;;;12.49;38.47
75312;BME280;63906;55.686;37.532;2023-04-29T15:58:38;99660.66;;;12.31;36.81
75312;BME280;63906;55.686;37.532;2023-04-29T16:03:38;99694.34;;;12.22;41.03
75312;BME280;63906;55.686;37.532;2023-04-29T16:08:39;99704.00;;;11.95;39.42
75312;BME280;63906;55.686;37.532;2023-04-29T16:13:39;99694.94;;;11.76;40.25
75312;BME280;63906;55.686;37.532;2023-04-29T16:18:40;99704.41;;;11.64;40.67
75312;BME280;63906;55.686;37.532;2023-04-29T16:23:41;99708.28;;;11.33;43.99
75312;BME280;63906;55.686;37.532;2023-04-29T16:28:41;99711.22;;;10.96;46.59
75312;BME280;63906;55.686;37.532;2023-04-29T16:33:42;99720.97;;;10.52;48.14
75312;BME280;63906;55.686;37.532;2023-04-29T16:38:43;99717.78;;;10.06;50.39
75312;BME280;63906;55.686;37.532;2023-04-29T16:43:43;99714.72;;;9.73;51.28
75312;BME280;63906;55.686;37.532;2023-04-29T16:48:47;99720.81;;;9.44;51.81
75312;BME280;63906;55.686;37.532;2023-04-29T16:53:52;99736.28;;;9.39;52.08
75312;BME280;63906;55.686;37.532;2023-04-29T16:58:52;99709.09;;;9.32;53.45
75312;BME280;63906;55.686;37.532;2023-04-29T17:03:54;99717.47;;;9.12;52.34
75312;BME280;63906;55.686;37.532;2023-04-29T17:08:54;99747.53;;;8.87;54.33
75312;BME280;63906;55.686;37.532;2023-04-29T17:13:55;99739.28;;;8.44;55.14
75312;BME280;63906;55.686;37.532;2023-04-29T17:18:55;99778.34;;;8.31;56.00
75312;BME280;63906;55.686;37.532;2023-04-29T17:23:56;99768.00;;;7.98;56.81
75312;BME280;63906;55.686;37.532;2023-04-29T17:28:58;99749.94;;;7.56;58.12
75312;BME280;63906;55.686;37.532;2023-04-29T17:33:58;99768.75;;;7.51;58.74
75312;BME280;63906;55.686;37.532;2023-04-29T17:39:07;99783.53;;;7.36;59.62
75312;BME280;63906;55.686;37.532;2023-04-29T17:44:10;99786.97;;;7.12;60.18
75312;BME280;63906;55.686;37.532;2023-04-29T17:49:10;99706.31;;;6.42;61.06
75312;BME280;63906;55.686;37.532;2023-04-29T17:54:11;99781.53;;;6.73;61.62
75312;BME280;63906;55.686;37.532;2023-04-29T17:59:11;99790.66;;;6.61;62.20
75312;BME280;63906;55.686;37.532;2023-04-29T18:04:12;99753.13;;;6.19;62.78
75312;BME280;63906;55.686;37.532;2023-04-29T18:09:13;99785.19;;;6.30;63.53
75312;BME280;63906;55.686;37.532;2023-04-29T18:14:13;99789.72;;;6.19;64.41
75312;BME280;63906;55.686;37.532;2023-04-29T18:19:14;99794.75;;;6.13;63.91
75312;BME280;63906;55.686;37.532;2023-04-29T18:24:14;99836.75;;;6.19;64.98
75312;BME280;63906;55.686;37.532;2023-04-29T18:29:15;99837.88;;;6.09;65.84
75312;BME280;63906;55.686;37.532;2023-04-29T18:34:16;99832.38;;;5.94;66.11
75312;BME280;63906;55.686;37.532;2023-04-29T18:39:16;99834.09;;;5.85;66.73
75312;BME280;63906;55.686;37.532;2023-04-29T18:44:17;99818.47;;;5.67;67.38
75312;BME280;63906;55.686;37.532;2023-04-29T18:49:17;99827.09;;;5.60;66.64
75312;BME280;63906;55.686;37.532;2023-04-29T18:54:18;99845.38;;;5.60;67.13
75312;BME280;63906;55.686;37.532;2023-04-29T18:59:19;99859.69;;;5.56;67.80
75312;BME280;63906;55.686;37.532;2023-04-29T19:04:19;99860.59;;;5.47;67.89
75312;BME280;63906;55.686;37.532;2023-04-29T19:09:23;99860.16;;;5.33;68.32
75312;BME280;63906;55.686;37.532;2023-04-29T19:14:24;99886.94;;;5.35;68.58
75312;BME280;63906;55.686;37.532;2023-04-29T19:19:25;99851.81;;;5.12;69.31
75312;BME280;63906;55.686;37.532;2023-04-29T19:24:25;99874.03;;;5.16;70.16
75312;BME280;63906;55.686;37.532;2023-04-29T19:29:26;99882.81;;;5.15;70.59
75312;BME280;63906;55.686;37.532;2023-04-29T19:34:28;99888.13;;;5.05;70.92
75312;BME280;63906;55.686;37.532;2023-04-29T19:39:28;99868.84;;;4.89;70.94
75312;BME280;63906;55.686;37.532;2023-04-29T19:44:29;99871.66;;;4.77;71.43
75312;BME280;63906;55.686;37.532;2023-04-29T19:49:30;99902.34;;;4.93;72.00
75312;BME280;63906;55.686;37.532;2023-04-29T19:54:30;99881.75;;;4.72;72.17
75312;BME280;63906;55.686;37.532;2023-04-29T19:59:31;99875.59;;;4.64;71.68
75312;BME280;63906;55.686;37.532;2023-04-29T20:04:32;99906.94;;;4.81;72.16
75312;BME280;63906;55.686;37.532;2023-04-29T20:09:34;99906.25;;;4.79;72.65
75312;BME280;63906;55.686;37.532;2023-04-29T20:14:34;99877.69;;;4.60;72.78
75312;BME280;63906;55.686;37.532;2023-04-29T20:19:35;99879.31;;;4.61;72.88
75312;BME280;63906;55.686;37.532;2023-04-29T20:24:38;99880.41;;;4.58;72.63
75312;BME280;63906;55.686;37.532;2023-04-29T20:29:39;99879.91;;;4.55;72.29
75312;BME280;63906;55.686;37.532;2023-04-29T20:34:40;99912.00;;;4.83;72.58
75312;BME280;63906;55.686;37.532;2023-04-29T20:39:41;99911.59;;;4.78;72.95
75312;BME280;63906;55.686;37.532;2023-04-29T20:44:41;99899.25;;;4.80;69.59
75312;BME280;63906;55.686;37.532;2023-04-29T20:49:42;99915.78;;;5.16;71.66
75312;BME280;63906;55.686;37.532;2023-04-29T20:54:42;99903.22;;;5.02;71.58
75312;BME280;63906;55.686;37.532;2023-04-29T20:59:43;99888.97;;;4.96;71.54
75312;BME280;63906;55.686;37.532;2023-04-29T21:04:44;99898.59;;;4.96;71.83
75312;BME280;63906;55.686;37.532;2023-04-29T21:09:45;99922.63;;;4.99;72.33
75312;BME280;63906;55.686;37.532;2023-04-29T21:14:47;99888.28;;;4.76;72.52
75312;BME280;63906;55.686;37.532;2023-04-29T21:19:48;99907.22;;;4.78;73.02
75312;BME280;63906;55.686;37.532;2023-04-29T21:24:51;99903.25;;;4.74;72.97
75312;BME280;63906;55.686;37.532;2023-04-29T21:29:52;99903.41;;;4.73;73.18
75312;BME280;63906;55.686;37.532;2023-04-29T21:34:53;99823.31;;;4.10;74.19
75312;BME280;63906;55.686;37.532;2023-04-29T21:39:53;99925.78;;;4.66;73.77
75312;BME280;63906;55.686;37.532;2023-04-29T21:44:58;99905.03;;;4.46;74.33
75312;BME280;63906;55.686;37.532;2023-04-29T21:49:59;99899.44;;;4.41;74.94
75312;BME280;63906;55.686;37.532;2023-04-29T21:55:01;99910.69;;;4.42;75.13
75312;BME280;63906;55.686;37.532;2023-04-29T22:00:06;99904.38;;;4.35;75.57
75312;BME280;63906;55.686;37.532;2023-04-29T22:05:18;99886.34;;;4.14;75.70
75312;BME280;63906;55.686;37.532;2023-04-29T22:10:18;99883.22;;;4.10;75.87
75312;BME280;63906;55.686;37.532;2023-04-29T22:15:19;99904.31;;;4.17;76.81
75312;BME280;63906;55.686;37.532;2023-04-29T22:20:20;99908.03;;;4.14;76.78
75312;BME280;63906;55.686;37.532;2023-04-29T22:25:20;99897.66;;;3.95;77.93
75312;BME280;63906;55.686;37.532;2023-04-29T22:30:21;99860.94;;;3.78;77.57
75312;BME280;63906;55.686;37.532;2023-04-29T22:35:21;99887.22;;;3.95;78.51
75312;BME280;63906;55.686;37.532;2023-04-29T22:40:22;99902.34;;;3.91;78.73
75312;BME280;63906;55.686;37.532;2023-04-29T22:45:23;99903.56;;;3.87;78.83
75312;BME280;63906;55.686;37.532;2023-04-29T22:50:23;99908.91;;;3.86;78.79
75312;BME280;63906;55.686;37.532;2023-04-29T22:55:24;99858.13;;;3.62;78.66
75312;BME280;63906;55.686;37.532;2023-04-29T23:00:24;99870.03;;;3.55;79.23
75312;BME280;63906;55.686;37.532;2023-04-29T23:05:25;99894.41;;;3.73;79.40
75312;BME280;63906;55.686;37.532;2023-04-29T23:10:26;99852.63;;;3.46;79.17
75312;BME280;63906;55.686;37.532;2023-04-29T23:15:26;99887.00;;;3.59;79.78
75312;BME280;63906;55.686;37.532;2023-04-29T23:20:27;99850.19;;;3.35;80.89
75312;BME280;63906;55.686;37.532;2023-04-29T23:25:28;99890.59;;;3.48;80.49
75312;BME280;63906;55.686;37.532;2023-04-29T23:30:30;99861.94;;;3.29;81.13
75312;BME280;63906;55.686;37.532;2023-04-29T23:35:31;99880.31;;;3.47;81.03
75312;BME280;63906;55.686;37.532;2023-04-29T23:40:31;99885.13;;;3.42;81.48
75312;BME280;63906;55.686;37.532;2023-04-29T23:45:32;99863.34;;;3.23;81.41
75312;BME280;63906;55.686;37.532;2023-04-29T23:50:32;99867.56;;;3.15;82.00
75312;BME280;63906;55.686;37.532;2023-04-29T23:55:33;99862.09;;;3.08;81.94
